Time;durP1;ratioP1;P1;durP2;ratioP2;P2;SDS_P1;SDS_P2;PMS_P1;PMS_P2;Temp;Humidity;BMP_temperature;BMP_pressure;BME280_temperature;BME280_humidity;BME280_pressure;Samples;Min_cycle;Max_cycle;Signal;HPM_P1;HPM_P2
2021/10/17 00:00:18;;;;;;;13.27;4.45;;;;;;;10.36;72.59;102159.44;5034296;28;20028;-61
2021/10/17 00:02:48;;;;;;;13.27;4.30;;;;;;;10.35;73.06;102157.69;5034465;28;20033;-62
2021/10/17 00:05:15;;;;;;;12.18;4.63;;;;;;;10.31;72.88;102167.47;5034019;28;20030;-62
2021/10/17 00:07:41;;;;;;;10.43;4.68;;;;;;;10.31;72.79;102151.59;5033576;28;20086;-61
2021/10/17 00:10:14;;;;;;;13.02;4.60;;;;;;;10.28;73.05;102155.19;5034241;28;20030;-60
2021/10/17 00:12:41;;;;;;;12.93;4.38;;;;;;;10.32;73.19;102154.19;5033974;28;20787;-63
2021/10/17 00:15:10;;;;;;;12.05;4.60;;;;;;;10.32;73.22;102156.84;5034042;28;20032;-62
2021/10/17 00:17:36;;;;;;;9.85;4.40;;;;;;;10.28;73.30;102154.28;5033689;28;20033;-62
2021/10/17 00:20:03;;;;;;;16.60;4.85;;;;;;;10.28;73.46;102147.25;5033586;28;20037;-60
2021/10/17 00:22:28;;;;;;;13.43;5.10;;;;;;;10.28;73.20;102147.25;5014154;28;20387;-61
2021/10/17 00:24:54;;;;;;;11.00;4.15;;;;;;;10.27;73.26;102145.50;5013939;28;20061;-64
2021/10/17 00:27:19;;;;;;;10.20;4.20;;;;;;;10.29;73.03;102140.16;5013631;28;20489;-62
2021/10/17 00:29:44;;;;;;;11.85;4.10;;;;;;;10.28;73.18;102141.94;5028733;28;20075;-62
2021/10/17 00:32:12;;;;;;;13.90;4.25;;;;;;;10.26;73.89;102148.19;5033892;28;20469;-62
2021/10/17 00:34:38;;;;;;;10.73;4.18;;;;;;;10.26;73.39;102153.47;5033615;28;20034;-60
2021/10/17 00:37:03;;;;;;;13.27;4.22;;;;;;;10.28;73.00;102144.59;5033742;28;20017;-62
2021/10/17 00:39:28;;;;;;;12.05;4.38;;;;;;;10.32;73.55;102153.34;5032898;28;20029;-62
2021/10/17 00:41:54;;;;;;;12.05;4.47;;;;;;;10.29;73.78;102145.44;5033044;28;20033;-62
2021/10/17 00:44:22;;;;;;;10.98;4.30;;;;;;;10.33;73.62;102149.75;5033152;28;20088;-61
2021/10/17 00:46:49;;;;;;;12.65;4.40;;;;;;;10.31;73.84;102149.81;5032800;28;20032;-62
2021/10/17 00:49:14;;;;;;;11.50;4.68;;;;;;;10.30;74.14;102147.19;5033160;28;20064;-60
2021/10/17 00:51:42;;;;;;;13.45;4.30;;;;;;;10.34;73.98;102154.16;5032938;28;20069;-62
2021/10/17 00:54:11;;;;;;;13.35;4.40;;;;;;;10.29;73.59;102143.69;5033157;28;20474;-62
2021/10/17 00:56:37;;;;;;;10.63;4.05;;;;;;;10.29;73.37;102141.06;5033152;28;20026;-62
2021/10/17 00:59:04;;;;;;;12.25;4.22;;;;;;;10.33;73.54;102145.34;5033163;28;20017;-62
2021/10/17 01:01:29;;;;;;;12.48;4.65;;;;;;;10.36;73.29;102132.97;5032778;28;20048;-62
2021/10/17 01:03:54;;;;;;;10.07;4.43;;;;;;;10.33;73.47;102140.06;5033301;28;20377;-61
2021/10/17 01:06:20;;;;;;;11.18;4.63;;;;;;;10.34;73.36;102132.97;5033036;28;20037;-61
2021/10/17 01:08:45;;;;;;;13.77;5.00;;;;;;;10.35;73.02;102136.53;5033300;28;20029;-62
2021/10/17 01:11:11;;;;;;;16.73;4.65;;;;;;;10.36;73.18;102131.22;5032443;28;20492;-60
2021/10/17 01:13:36;;;;;;;9.95;4.22;;;;;;;10.37;72.92;102129.41;5032316;28;20033;-62
2021/10/17 01:16:02;;;;;;;10.13;4.43;;;;;;;10.39;72.45;102123.19;5032970;28;20034;-62
2021/10/17 01:18:28;;;;;;;11.00;4.35;;;;;;;10.39;72.56;102120.53;5032577;28;20033;-61
2021/10/17 01:20:53;;;;;;;16.33;4.65;;;;;;;10.40;72.41;102124.94;5032549;28;20033;-62
2021/10/17 01:23:20;;;;;;;10.85;4.18;;;;;;;10.39;72.13;102122.31;5032468;28;20032;-62
2021/10/17 01:25:45;;;;;;;17.17;4.90;;;;;;;10.38;72.45;102116.13;5032659;28;20041;-60
2021/10/17 01:28:11;;;;;;;14.73;4.15;;;;;;;10.40;72.07;102117.00;5032649;28;20408;-61
2021/10/17 01:30:37;;;;;;;12.23;4.90;;;;;;;10.40;72.20;102111.69;5032095;28;20450;-63
2021/10/17 01:33:03;;;;;;;9.52;4.22;;;;;;;10.41;72.39;102115.19;5032837;28;20040;-60
2021/10/17 01:35:29;;;;;;;17.63;5.45;;;;;;;10.41;72.62;102118.72;5032558;28;20108;-62
2021/10/17 01:37:54;;;;;;;12.82;4.60;;;;;;;10.42;72.64;102115.19;5032719;28;20151;-61
2021/10/17 01:40:20;;;;;;;13.73;4.63;;;;;;;10.43;72.42;102119.56;5032350;28;20026;-61
2021/10/17 01:42:45;;;;;;;10.88;4.20;;;;;;;10.44;72.70;102116.00;5032150;28;20380;-62
2021/10/17 01:45:11;;;;;;;12.20;4.40;;;;;;;10.44;73.07;102117.78;5032458;28;20052;-61
2021/10/17 01:47:37;;;;;;;9.68;4.80;;;;;;;10.43;72.85;102118.69;5031957;28;20474;-61
2021/10/17 01:50:04;;;;;;;11.60;4.65;;;;;;;10.42;72.69;102119.59;5032417;28;20071;-60
2021/10/17 01:52:31;;;;;;;10.05;4.47;;;;;;;10.40;73.02;102113.47;5032182;28;20099;-62
2021/10/17 01:54:56;;;;;;;16.85;4.70;;;;;;;10.39;72.72;102112.59;5032272;28;20087;-61
2021/10/17 01:57:22;;;;;;;15.77;5.10;;;;;;;10.36;73.42;102109.13;5032368;28;20033;-61
2021/10/17 01:59:47;;;;;;;19.05;4.97;;;;;;;10.40;73.39;102113.47;5032182;28;20036;-61
2021/10/17 02:02:12;;;;;;;13.02;4.95;;;;;;;10.41;73.14;102112.53;5032171;28;20026;-61
2021/10/17 02:04:38;;;;;;;11.90;5.05;;;;;;;10.35;73.43;102102.94;5031878;28;20033;-62
2021/10/17 02:07:03;;;;;;;16.23;4.45;;;;;;;10.37;73.15;102098.53;5032538;28;20117;-61
2021/10/17 02:09:28;;;;;;;10.25;4.80;;;;;;;10.39;72.92;102103.78;5032311;28;20037;-61
2021/10/17 02:11:54;;;;;;;11.43;4.82;;;;;;;10.34;72.90;102101.22;5032642;28;20032;-61
2021/10/17 02:14:19;;;;;;;12.73;4.60;;;;;;;10.36;73.08;102103.84;5031863;28;20481;-61
2021/10/17 02:16:44;;;;;;;10.55;4.22;;;;;;;10.36;73.19;102103.84;5031998;28;20124;-61
2021/10/17 02:19:10;;;;;;;13.90;4.40;;;;;;;10.37;73.13;102097.66;5032337;28;20112;-60
2021/10/17 02:21:35;;;;;;;11.32;4.32;;;;;;;10.37;73.18;102102.94;5032691;28;20031;-61
2021/10/17 02:24:00;;;;;;;13.07;5.25;;;;;;;10.38;73.56;102104.69;5031938;28;20159;-62
2021/10/17 02:26:26;;;;;;;13.60;4.63;;;;;;;10.40;73.45;102113.47;5031667;28;20129;-61
2021/10/17 02:28:51;;;;;;;11.63;4.72;;;;;;;10.38;73.06;102102.91;5032220;28;20466;-62
2021/10/17 02:31:17;;;;;;;13.10;4.65;;;;;;;10.36;73.27;102107.38;5031839;28;20037;-62
2021/10/17 02:33:42;;;;;;;17.30;6.20;;;;;;;10.37;73.35;102098.53;5031784;28;20033;-61
2021/10/17 02:36:08;;;;;;;15.18;4.65;;;;;;;10.38;73.42;102104.69;5031817;28;20037;-61
2021/10/17 02:38:33;;;;;;;11.75;4.38;;;;;;;10.37;73.45;102102.94;5032252;28;20079;-62
2021/10/17 02:40:59;;;;;;;13.00;5.10;;;;;;;10.35;73.72;102102.94;5032033;28;20032;-61
2021/10/17 02:43:24;;;;;;;15.57;5.22;;;;;;;10.33;73.58;102102.09;5032078;28;20025;-61
2021/10/17 02:45:50;;;;;;;12.38;4.20;;;;;;;10.32;73.91;102095.94;5031316;28;20037;-61
2021/10/17 02:48:15;;;;;;;13.13;4.30;;;;;;;10.32;73.53;102101.25;5031559;28;20021;-62
2021/10/17 02:50:41;;;;;;;10.40;4.65;;;;;;;10.33;73.50;102087.09;5032017;28;20021;-61
2021/10/17 02:53:06;;;;;;;11.40;4.95;;;;;;;10.31;73.15;102088.91;5032010;28;20105;-61
2021/10/17 02:55:32;;;;;;;13.30;4.78;;;;;;;10.32;72.96;102095.94;5031805;28;20033;-62
2021/10/17 02:57:57;;;;;;;11.20;4.80;;;;;;;10.34;72.27;102085.31;5031679;28;20029;-62
2021/10/17 03:00:23;;;;;;;11.98;5.20;;;;;;;10.37;72.30;102081.75;5032954;28;20034;-60
2021/10/17 03:02:48;;;;;;;15.80;5.63;;;;;;;10.38;71.94;102075.56;5035194;28;20034;-62
2021/10/17 03:05:14;;;;;;;20.30;5.50;;;;;;;10.37;72.05;102077.34;5035455;28;20025;-62
2021/10/17 03:07:39;;;;;;;15.70;5.30;;;;;;;10.40;71.94;102079.06;5034921;28;20040;-61
2021/10/17 03:10:06;;;;;;;13.23;5.22;;;;;;;10.42;71.97;102074.56;5035275;28;20135;-62
2021/10/17 03:12:31;;;;;;;15.05;5.70;;;;;;;10.41;71.68;102080.78;5035473;28;20052;-60
2021/10/17 03:14:57;;;;;;;14.23;5.10;;;;;;;10.42;71.96;102077.22;5035060;28;20486;-62
2021/10/17 03:17:22;;;;;;;11.68;4.90;;;;;;;10.39;72.62;102066.72;5034518;28;20378;-60
2021/10/17 03:19:49;;;;;;;20.92;5.88;;;;;;;10.32;71.96;102066.81;5034622;28;20385;-62
2021/10/17 03:22:14;;;;;;;14.27;5.10;;;;;;;10.33;72.10;102071.22;5035293;28;20025;-60
2021/10/17 03:24:40;;;;;;;15.15;5.47;;;;;;;10.34;72.01;102069.44;5034810;28;20049;-62
2021/10/17 03:27:05;;;;;;;17.77;6.25;;;;;;;10.35;71.92;102071.19;5034875;28;20064;-62
2021/10/17 03:29:30;;;;;;;17.13;5.57;;;;;;;10.34;71.90;102066.78;5034593;28;20028;-60
2021/10/17 03:31:56;;;;;;;14.80;6.05;;;;;;;10.32;72.21;102066.81;5034925;28;20495;-62
2021/10/17 03:34:21;;;;;;;17.52;6.20;;;;;;;10.29;72.22;102066.91;5034545;28;20381;-62
2021/10/17 03:36:46;;;;;;;14.05;5.88;;;;;;;10.29;72.23;102068.66;5034833;28;20061;-62
2021/10/17 03:39:12;;;;;;;17.25;6.63;;;;;;;10.25;72.51;102057.28;5034635;28;20028;-62
2021/10/17 03:41:37;;;;;;;14.55;6.13;;;;;;;10.29;72.42;102063.38;5034238;28;20159;-61
2021/10/17 03:44:04;;;;;;;14.48;5.60;;;;;;;10.29;72.33;102068.66;5034862;28;20056;-62
2021/10/17 03:46:29;;;;;;;18.33;6.72;;;;;;;10.28;72.27;102064.28;5034598;28;20060;-61
2021/10/17 03:48:54;;;;;;;17.33;6.57;;;;;;;10.27;72.72;102059.91;5033922;28;20528;-62
2021/10/17 03:51:20;;;;;;;18.15;6.72;;;;;;;10.27;72.79;102058.13;5034412;28;20048;-61
2021/10/17 03:53:45;;;;;;;17.02;7.03;;;;;;;10.26;72.43;102058.16;5034552;28;20025;-62
2021/10/17 03:56:10;;;;;;;15.23;6.32;;;;;;;10.27;72.58;102055.47;5034305;28;20072;-61
2021/10/17 03:58:36;;;;;;;16.55;6.95;;;;;;;10.28;72.23;102053.69;5034844;28;20033;-62
2021/10/17 04:01:01;;;;;;;16.38;6.90;;;;;;;10.26;72.20;102047.59;5033760;28;20036;-62
2021/10/17 04:03:26;;;;;;;18.40;6.85;;;;;;;10.29;72.58;102048.38;5034114;28;20379;-61
2021/10/17 04:05:52;;;;;;;17.05;6.85;;;;;;;10.29;72.29;102045.72;5034067;28;20047;-61
2021/10/17 04:08:17;;;;;;;16.10;7.30;;;;;;;10.29;72.72;102039.56;5034438;28;20086;-61
2021/10/17 04:10:42;;;;;;;17.60;7.00;;;;;;;10.26;72.95;102045.78;5033091;28;20030;-61
2021/10/17 04:13:07;;;;;;;19.55;7.95;;;;;;;10.29;72.50;102050.13;5034173;28;20112;-60
2021/10/17 04:15:35;;;;;;;15.32;6.65;;;;;;;10.33;72.66;102051.81;5034203;28;20435;-62
2021/10/17 04:18:02;;;;;;;18.67;7.68;;;;;;;10.31;72.64;102043.91;5034143;28;20025;-61
2021/10/17 04:20:28;;;;;;;20.40;7.55;;;;;;;10.34;72.64;102048.25;5033491;28;20033;-62
2021/10/17 04:22:53;;;;;;;19.27;7.28;;;;;;;10.33;73.22;102049.16;5033571;28;20030;-62
2021/10/17 04:25:18;;;;;;;23.08;8.30;;;;;;;10.33;72.63;102049.16;5033507;28;20060;-61
2021/10/17 04:27:44;;;;;;;18.40;7.70;;;;;;;10.32;72.76;102040.34;5033934;28;20440;-62
2021/10/17 04:30:09;;;;;;;20.25;7.82;;;;;;;10.30;72.80;102039.50;5033899;28;20069;-61
2021/10/17 04:32:35;;;;;;;16.05;7.97;;;;;;;10.31;72.61;102045.69;5033577;28;20124;-61
2021/10/17 04:35:00;;;;;;;18.17;7.55;;;;;;;10.37;72.09;102042.03;5033034;28;20033;-61
2021/10/17 04:37:28;;;;;;;20.02;7.80;;;;;;;10.37;71.96;102045.59;5033695;28;20033;-60
2021/10/17 04:39:53;;;;;;;15.70;7.00;;;;;;;10.37;72.02;102045.59;5033647;28;20068;-61
2021/10/17 04:42:19;;;;;;;17.73;7.00;;;;;;;10.39;72.23;102048.19;5033314;28;20052;-61
2021/10/17 04:44:44;;;;;;;16.63;7.53;;;;;;;10.35;72.57;102055.28;5033253;28;20079;-61
2021/10/17 04:47:09;;;;;;;18.60;7.05;;;;;;;10.36;72.39;102053.53;5030018;28;20080;-62
2021/10/17 04:49:35;;;;;;;18.40;6.72;;;;;;;10.39;72.29;102058.78;5033606;28;20036;-62
2021/10/17 04:52:00;;;;;;;20.40;6.97;;;;;;;10.33;72.35;102057.97;5032541;28;20056;-62
2021/10/17 04:54:25;;;;;;;17.52;6.95;;;;;;;10.39;72.62;102056.97;5032875;28;20056;-62
2021/10/17 04:56:51;;;;;;;19.75;7.40;;;;;;;10.37;72.30;102053.53;5033379;28;20030;-62
2021/10/17 04:59:20;;;;;;;16.70;6.97;;;;;;;10.37;72.32;102053.53;5033042;28;20025;-60
2021/10/17 05:01:46;;;;;;;18.25;7.07;;;;;;;10.38;72.26;102052.59;5033374;28;20038;-62
2021/10/17 05:04:11;;;;;;;18.55;7.95;;;;;;;10.39;72.27;102056.97;5032864;28;20029;-61
2021/10/17 05:06:36;;;;;;;23.27;7.32;;;;;;;10.38;72.50;102051.72;5032292;28;20124;-61
2021/10/17 05:09:02;;;;;;;16.17;6.85;;;;;;;10.42;72.20;102061.34;5032987;28;20064;-63
2021/10/17 05:11:27;;;;;;;18.25;6.72;;;;;;;10.40;72.28;102052.56;5033091;28;20029;-62
2021/10/17 05:13:52;;;;;;;14.60;5.97;;;;;;;10.40;72.34;102058.72;5032936;28;20014;-60
2021/10/17 05:16:18;;;;;;;18.08;6.53;;;;;;;10.41;71.97;102059.59;5032817;28;20500;-62
2021/10/17 05:18:43;;;;;;;11.75;5.43;;;;;;;10.42;72.04;102067.53;5032981;28;20469;-62
2021/10/17 05:21:09;;;;;;;14.80;5.97;;;;;;;10.45;71.86;102051.53;5032500;28;20501;-62
2021/10/17 05:23:38;;;;;;;16.50;5.57;;;;;;;10.46;71.97;102055.03;5032176;28;20067;-61
2021/10/17 05:26:04;;;;;;;14.77;5.97;;;;;;;10.49;71.70;102057.63;5032414;28;20386;-61
2021/10/17 05:28:30;;;;;;;20.60;6.32;;;;;;;10.52;71.81;102059.34;5032606;28;20068;-61
2021/10/17 05:30:57;;;;;;;13.30;5.60;;;;;;;10.49;71.91;102053.19;5031866;28;20053;-61
2021/10/17 05:33:22;;;;;;;12.70;5.25;;;;;;;10.49;72.16;102066.44;5032731;28;20021;-61
2021/10/17 05:35:47;;;;;;;14.55;6.05;;;;;;;10.51;72.05;102066.41;5032438;28;20104;-61
2021/10/17 05:38:13;;;;;;;17.08;5.72;;;;;;;10.49;72.07;102069.09;5031973;28;20090;-62
2021/10/17 05:40:38;;;;;;;12.60;5.63;;;;;;;10.49;72.22;102062.94;5033054;28;20369;-61
2021/10/17 05:43:03;;;;;;;18.05;5.75;;;;;;;10.47;71.57;102062.97;5031181;28;20466;-62
2021/10/17 05:45:29;;;;;;;13.43;5.30;;;;;;;10.48;71.43;102067.34;5032112;28;20109;-62
2021/10/17 05:47:54;;;;;;;10.13;5.80;;;;;;;10.52;71.96;102069.94;5032145;28;20030;-62
2021/10/17 05:50:19;;;;;;;16.35;5.28;;;;;;;10.52;71.62;102068.13;5032222;28;20104;-63
2021/10/17 05:52:45;;;;;;;10.23;5.22;;;;;;;10.51;72.06;102066.41;5032319;28;20029;-61
2021/10/17 05:55:10;;;;;;;15.00;5.20;;;;;;;10.51;72.10;102069.03;5032771;28;20548;-61
2021/10/17 05:57:36;;;;;;;15.40;5.65;;;;;;;10.49;71.78;102068.22;5032608;28;20029;-62
2021/10/17 06:00:07;;;;;;;17.05;5.78;;;;;;;10.51;72.13;102071.69;5031915;28;20036;-62
2021/10/17 06:02:32;;;;;;;14.82;5.55;;;;;;;10.51;71.20;102081.44;5026019;28;20030;-62
2021/10/17 06:04:57;;;;;;;14.13;5.32;;;;;;;10.55;72.01;102078.69;5032310;28;20377;-62
2021/10/17 06:07:23;;;;;;;13.18;5.47;;;;;;;10.57;71.96;102083.94;5032019;28;20087;-61
2021/10/17 06:09:49;;;;;;;14.45;5.22;;;;;;;10.57;71.94;102087.44;5031820;28;20025;-61
2021/10/17 06:12:14;;;;;;;13.77;5.85;;;;;;;10.55;72.06;102085.72;5031576;28;20075;-62
2021/10/17 06:14:39;;;;;;;12.82;5.18;;;;;;;10.53;71.80;102084.91;5024151;28;20448;-61
2021/10/17 06:17:05;;;;;;;16.45;6.00;;;;;;;10.54;71.74;102087.53;5027018;28;20041;-62
2021/10/17 06:19:30;;;;;;;16.23;5.85;;;;;;;10.53;71.93;102092.88;5031878;28;20091;-61
2021/10/17 06:21:57;;;;;;;18.88;5.50;;;;;;;10.59;71.41;102084.78;5033039;28;20035;-61
2021/10/17 06:24:22;;;;;;;14.93;5.53;;;;;;;10.60;71.40;102090.03;5029332;28;20029;-60
2021/10/17 06:26:48;;;;;;;16.17;5.97;;;;;;;10.56;71.72;102098.97;5031427;28;20049;-59
2021/10/17 06:29:13;;;;;;;13.48;5.20;;;;;;;10.62;70.83;102096.13;5032194;28;20037;-60
2021/10/17 06:31:39;;;;;;;13.98;5.35;;;;;;;10.67;70.81;102100.47;5031748;28;20473;-60
2021/10/17 06:34:05;;;;;;;18.40;5.78;;;;;;;10.68;70.98;102103.09;5023955;28;20474;-60
2021/10/17 06:36:31;;;;;;;16.90;5.18;;;;;;;10.75;70.84;102104.66;5029930;28;20032;-60
2021/10/17 06:38:56;;;;;;;14.82;5.65;;;;;;;10.74;70.56;102100.28;5035091;28;20049;-59
2021/10/17 06:41:21;;;;;;;12.32;5.30;;;;;;;10.76;70.95;102109.03;5033412;28;20485;-60
2021/10/17 06:43:47;;;;;;;12.35;5.55;;;;;;;10.78;70.87;102101.03;5036088;28;20108;-59
2021/10/17 06:46:12;;;;;;;12.20;4.88;;;;;;;10.82;70.55;102100.94;5035352;28;20116;-60
2021/10/17 06:48:38;;;;;;;13.93;5.07;;;;;;;10.84;70.47;102113.28;5036161;28;20104;-60
2021/10/17 06:51:03;;;;;;;16.33;5.30;;;;;;;10.86;70.83;102098.19;5035697;28;20473;-60
2021/10/17 06:53:28;;;;;;;14.18;5.57;;;;;;;10.87;70.57;102103.47;5034895;28;20029;-60
2021/10/17 06:55:54;;;;;;;18.40;5.55;;;;;;;10.85;70.71;102107.09;5034946;28;20061;-60
2021/10/17 06:58:19;;;;;;;11.57;4.68;;;;;;;10.89;70.55;102104.28;5035792;28;20112;-60
2021/10/17 07:00:44;;;;;;;9.07;4.80;;;;;;;10.88;70.87;102105.22;5035166;28;20029;-60
2021/10/17 07:03:10;;;;;;;11.13;5.00;;;;;;;10.90;70.57;102100.75;5019392;28;20018;-62
2021/10/17 07:05:35;;;;;;;15.27;4.57;;;;;;;10.92;70.00;102096.28;5015912;28;20061;-61
2021/10/17 07:08:00;;;;;;;11.20;5.18;;;;;;;10.95;69.91;102109.44;5015970;28;20335;-60
2021/10/17 07:10:26;;;;;;;13.70;5.18;;;;;;;11.00;69.93;102109.34;5014899;28;20048;-61
2021/10/17 07:12:51;;;;;;;10.85;4.43;;;;;;;11.01;69.84;102099.59;5031828;28;20026;-62
2021/10/17 07:15:16;;;;;;;11.15;4.80;;;;;;;11.04;69.77;102102.19;5035285;28;20390;-60
2021/10/17 07:17:41;;;;;;;14.68;4.63;;;;;;;11.08;69.53;102101.19;5035295;28;20057;-60
2021/10/17 07:20:07;;;;;;;14.90;5.68;;;;;;;11.08;69.32;102096.72;5035494;28;20031;-60
2021/10/17 07:22:33;;;;;;;13.90;5.00;;;;;;;11.08;69.25;102091.44;5034996;28;20025;-62
2021/10/17 07:24:58;;;;;;;13.13;5.22;;;;;;;11.10;68.90;102102.88;5034670;28;20041;-61
2021/10/17 07:27:23;;;;;;;13.48;4.97;;;;;;;11.19;68.28;102100.88;5035116;28;20385;-60
2021/10/17 07:29:49;;;;;;;11.98;5.00;;;;;;;11.23;68.66;102107.84;5035137;28;20029;-62
2021/10/17 07:32:14;;;;;;;14.98;5.50;;;;;;;11.25;68.46;102109.56;5033211;28;20029;-60
2021/10/17 07:34:40;;;;;;;12.63;4.95;;;;;;;11.32;68.97;102110.25;5033888;28;20549;-62
2021/10/17 07:37:05;;;;;;;9.82;4.53;;;;;;;11.34;68.24;102108.41;5034995;28;20462;-61
2021/10/17 07:39:30;;;;;;;14.07;4.95;;;;;;;11.35;68.83;102115.44;5034441;28;20052;-61
2021/10/17 07:41:56;;;;;;;12.45;5.07;;;;;;;11.40;68.68;102107.38;5016068;28;20026;-60
2021/10/17 07:44:22;;;;;;;11.50;4.70;;;;;;;11.47;67.77;102108.94;5025842;28;20026;-61
2021/10/17 07:46:48;;;;;;;11.52;4.90;;;;;;;11.48;67.85;102110.66;5034029;28;20116;-60
2021/10/17 07:49:13;;;;;;;15.13;4.97;;;;;;;11.54;67.29;102110.50;5034987;28;20057;-61
2021/10/17 07:51:38;;;;;;;11.32;5.10;;;;;;;11.63;67.51;102117.34;5032849;28;20132;-60
2021/10/17 07:54:04;;;;;;;14.98;5.43;;;;;;;11.63;67.14;102112.03;5035472;28;20029;-60
2021/10/17 07:56:30;;;;;;;12.50;5.50;;;;;;;11.66;67.38;102114.56;5048191;28;20028;-62
2021/10/17 07:58:55;;;;;;;14.27;5.25;;;;;;;11.69;67.36;102116.28;5054064;28;20107;-60
2021/10/17 08:01:20;;;;;;;13.95;5.63;;;;;;;11.69;67.13;102133.09;5054418;28;20028;-61
2021/10/17 08:03:45;;;;;;;13.00;5.20;;;;;;;11.78;67.64;102116.03;5049889;28;21600;-61
2021/10/17 08:06:11;;;;;;;13.43;5.57;;;;;;;11.81;67.17;102118.56;5034448;28;20045;-61
2021/10/17 08:08:36;;;;;;;13.90;5.50;;;;;;;11.85;67.05;102122.03;5034391;28;20108;-61
2021/10/17 08:11:02;;;;;;;12.05;5.28;;;;;;;11.94;67.15;102119.09;5034008;28;20022;-61
2021/10/17 08:13:28;;;;;;;14.70;5.22;;;;;;;12.05;66.07;102117.00;5033943;28;20377;-62
2021/10/17 08:15:54;;;;;;;13.88;5.20;;;;;;;12.12;65.85;102117.69;5034537;28;20029;-61
2021/10/17 08:18:20;;;;;;;17.48;5.90;;;;;;;12.19;65.74;102118.38;5033613;28;20032;-61
2021/10/17 08:20:45;;;;;;;12.30;5.13;;;;;;;12.26;65.13;102117.25;5034420;28;20033;-60
2021/10/17 08:23:10;;;;;;;15.25;5.93;;;;;;;12.19;65.41;102113.06;5034169;28;20032;-63
2021/10/17 08:25:38;;;;;;;16.17;5.53;;;;;;;12.20;64.69;102112.13;5033058;28;20128;-62
2021/10/17 08:28:03;;;;;;;12.93;5.05;;;;;;;12.19;65.43;102121.03;5030987;28;20501;-63
2021/10/17 08:30:29;;;;;;;12.95;4.95;;;;;;;12.24;64.84;102117.31;5033952;28;20104;-63
2021/10/17 08:32:54;;;;;;;12.32;5.38;;;;;;;12.44;64.54;102121.09;5033623;28;20034;-61
2021/10/17 08:35:19;;;;;;;12.32;5.30;;;;;;;12.85;63.51;102115.34;5033927;28;20056;-61
2021/10/17 08:37:45;;;;;;;13.05;5.57;;;;;;;13.53;61.69;102116.53;5033905;28;20021;-60
2021/10/17 08:40:11;;;;;;;15.23;4.97;;;;;;;14.09;59.09;102114.41;5033612;28;20104;-61
2021/10/17 08:42:37;;;;;;;13.82;5.00;;;;;;;14.09;58.21;102117.06;5032061;28;20443;-62
2021/10/17 08:45:04;;;;;;;11.60;5.13;;;;;;;13.85;59.10;102113.56;5031974;28;20029;-60
2021/10/17 08:47:31;;;;;;;12.10;5.03;;;;;;;13.66;59.52;102105.41;5033100;28;20025;-62
2021/10/17 08:49:57;;;;;;;15.63;5.28;;;;;;;13.59;59.42;102108.31;5032332;28;20029;-63
2021/10/17 08:52:22;;;;;;;12.80;5.45;;;;;;;13.39;60.23;102109.06;5033516;28;20083;-60
2021/10/17 08:54:48;;;;;;;13.68;5.40;;;;;;;13.30;60.10;102112.03;5033365;28;20017;-60
2021/10/17 08:57:13;;;;;;;12.57;5.32;;;;;;;13.27;60.76;102106.78;5033161;28;20025;-61
2021/10/17 08:59:47;;;;;;;12.60;5.57;;;;;;;13.20;60.94;102108.81;5033229;28;20107;-62
2021/10/17 09:02:18;;;;;;;11.55;5.28;;;;;;;13.14;61.32;102111.69;5022490;28;20487;-61
2021/10/17 09:04:57;;;;;;;13.82;5.35;;;;;;;13.40;60.34;102116.13;5031089;28;20033;-60
2021/10/17 09:07:22;;;;;;;12.32;5.10;;;;;;;13.53;60.06;102108.56;5033407;28;20037;-62
2021/10/17 09:10:10;;;;;;;10.93;4.88;;;;;;;13.59;59.53;102102.13;5031710;28;20018;-62
2021/10/17 09:12:36;;;;;;;10.88;4.93;;;;;;;13.59;59.50;102108.31;5032617;28;20591;-62
2021/10/17 09:15:25;;;;;;;13.82;5.15;;;;;;;13.50;59.28;102118.44;5030107;28;20183;-61
2021/10/17 09:18:08;;;;;;;10.32;5.07;;;;;;;14.08;58.70;102115.38;5032764;28;20029;-60
2021/10/17 09:20:36;;;;;;;13.77;5.32;;;;;;;14.46;57.20;102109.41;5022055;28;20029;-61
2021/10/17 09:23:04;;;;;;;12.55;5.47;;;;;;;14.75;56.14;102114.44;5032923;28;20029;-62
2021/10/17 09:25:34;;;;;;;12.38;4.80;;;;;;;14.52;56.21;102117.16;5031617;28;20057;-63
2021/10/17 09:28:12;;;;;;;13.27;5.13;;;;;;;14.09;57.92;102123.28;5032997;28;20140;-62
2021/10/17 09:30:37;;;;;;;14.50;5.25;;;;;;;13.84;58.88;102119.84;5033143;28;20528;-63
2021/10/17 09:33:11;;;;;;;11.50;5.20;;;;;;;13.70;59.71;102121.22;5032744;28;20025;-62
2021/10/17 09:35:36;;;;;;;9.85;4.68;;;;;;;13.55;59.67;102119.97;5027810;28;20433;-62
2021/10/17 09:38:02;;;;;;;14.65;4.32;;;;;;;13.56;59.83;102115.56;5032932;28;20025;-60
2021/10/17 09:40:28;;;;;;;11.77;4.82;;;;;;;13.62;59.92;102115.31;5031938;28;20030;-61
2021/10/17 09:43:01;;;;;;;10.63;5.28;;;;;;;13.57;60.11;102119.97;5032563;28;20022;-61
2021/10/17 09:45:26;;;;;;;11.35;4.88;;;;;;;13.52;60.07;102125.44;5032717;28;20130;-60
2021/10/17 09:47:52;;;;;;;10.45;4.75;;;;;;;13.65;59.94;102123.19;5032453;28;20053;-61
2021/10/17 09:50:20;;;;;;;11.77;4.43;;;;;;;14.00;59.22;102125.44;5032249;28;20500;-60
2021/10/17 09:52:56;;;;;;;13.93;5.13;;;;;;;14.48;57.84;102131.56;5032926;28;20064;-58
2021/10/17 09:55:22;;;;;;;10.63;4.60;;;;;;;15.16;55.34;102118.94;5030355;28;20401;-61
2021/10/17 09:57:48;;;;;;;11.18;4.85;;;;;;;16.17;52.88;102112.56;5030863;28;20044;-59
2021/10/17 10:00:13;;;;;;;11.98;4.60;;;;;;;16.67;49.87;102116.38;5032403;28;20029;-61
2021/10/17 10:02:41;;;;;;;9.15;4.35;;;;;;;17.11;49.38;102119.56;5032200;28;20469;-61
2021/10/17 10:05:07;;;;;;;9.07;4.10;;;;;;;17.71;47.91;102115.50;5032328;28;20033;-63
2021/10/17 10:07:33;;;;;;;9.70;4.57;;;;;;;17.80;46.51;102114.97;5032834;28;20021;-61
2021/10/17 10:10:02;;;;;;;13.82;4.93;;;;;;;17.53;47.19;102107.50;5032656;28;20033;-62
2021/10/17 10:12:28;;;;;;;11.05;4.50;;;;;;;17.85;46.80;102111.13;5036480;28;20026;-62
2021/10/17 10:14:55;;;;;;;11.30;4.32;;;;;;;18.20;46.14;102102.06;5036217;28;20433;-61
2021/10/17 10:17:22;;;;;;;11.95;4.40;;;;;;;18.15;45.60;102109.50;5036105;28;20026;-62
2021/10/17 10:19:47;;;;;;;9.85;4.30;;;;;;;18.24;44.87;102111.66;5035827;28;20029;-61
2021/10/17 10:22:14;;;;;;;11.00;4.18;;;;;;;18.07;46.22;102107.28;5036614;28;20444;-62
2021/10/17 10:24:42;;;;;;;8.98;4.32;;;;;;;17.96;46.00;102113.22;5035626;28;20521;-65
2021/10/17 10:27:08;;;;;;;10.98;4.15;;;;;;;17.73;46.66;102110.94;5036060;28;20048;-62
2021/10/17 10:29:34;;;;;;;8.77;4.45;;;;;;;17.43;45.88;102107.16;5032188;28;20041;-59
2021/10/17 10:32:06;;;;;;;7.68;3.72;;;;;;;16.74;47.76;102103.56;5030909;28;20032;-60
2021/10/17 10:34:31;;;;;;;8.70;4.10;;;;;;;16.57;48.48;102116.91;5027939;28;20036;-61
2021/10/17 10:36:56;;;;;;;12.50;4.47;;;;;;;16.50;49.07;102113.69;5035824;28;20026;-62
2021/10/17 10:39:23;;;;;;;10.30;4.22;;;;;;;16.48;49.72;102118.22;5035549;28;20275;-62
2021/10/17 10:41:52;;;;;;;7.85;3.83;;;;;;;16.18;50.13;102114.31;5036107;28;20481;-60
2021/10/17 10:44:31;;;;;;;10.98;4.10;;;;;;;15.93;51.19;102109.25;5035869;28;20032;-61
2021/10/17 10:46:58;;;;;;;10.05;4.07;;;;;;;15.76;51.54;102107.34;5035442;28;20029;-61
2021/10/17 10:49:46;;;;;;;11.27;3.90;;;;;;;15.65;52.05;102110.53;5036111;28;20022;-61
2021/10/17 10:52:34;;;;;;;9.27;3.65;;;;;;;15.38;51.94;102108.19;5032149;28;20116;-60
2021/10/17 10:55:07;;;;;;;9.23;3.80;;;;;;;15.44;52.76;102122.19;5034875;28;20048;-61
2021/10/17 10:57:40;;;;;;;9.68;3.88;;;;;;;15.18;53.80;102125.06;5035502;28;20033;-61
2021/10/17 11:00:10;;;;;;;10.88;3.90;;;;;;;15.12;54.19;102127.16;5035585;28;20044;-60
2021/10/17 11:02:37;;;;;;;10.68;4.55;;;;;;;15.06;54.59;102133.59;5035200;28;20036;-59
2021/10/17 11:05:16;;;;;;;10.10;4.40;;;;;;;14.85;55.10;102120.25;5035861;28;20045;-60
2021/10/17 11:07:44;;;;;;;10.43;4.50;;;;;;;14.67;55.63;102121.91;5035422;28;20120;-62
2021/10/17 11:10:21;;;;;;;12.88;4.55;;;;;;;14.53;56.40;102118.91;5034610;28;20482;-59
2021/10/17 11:12:49;;;;;;;12.07;4.00;;;;;;;14.41;56.34;102129.13;5035622;28;20381;-59